Terminal Aerodrome Forecast
Issued by NWS

Home | Current Version | Previous Version | Text Only | Print | Product List | Glossary On
Versions: 1 2 3 4 5 6 7 8 9 10 11 12 13 14 15 16 17 18 19 20
000
FTUS42 KMHX 302300
TAFISO
TAF
KISO 302321Z 0100/0124 36005KT P6SM SKC
     FM010700 00000KT 3SM BR SCT005
     FM011300 03005KT P6SM SCT025
     FM011800 03005KT P6SM SCT250
      AMD LTD TO CLD VIS AND WIND=

USA.gov is the U.S. government's official web portal to all federal, state and local government web resources and services.